sensor_id;sensor_type;location;lat;lon;timestamp;P1;durP1;ratioP1;P2;durP2;ratioP2
74867;SDS011;63419;42.262;12.210;2023-05-07T00:00:02;5.32;;;1.30;;
74867;SDS011;63419;42.262;12.210;2023-05-07T00:02:34;5.68;;;1.35;;
74867;SDS011;63419;42.262;12.210;2023-05-07T00:05:01;6.05;;;1.83;;
74867;SDS011;63419;42.262;12.210;2023-05-07T00:07:29;6.13;;;2.20;;
74867;SDS011;63419;42.262;12.210;2023-05-07T00:09:57;4.95;;;1.60;;
74867;SDS011;63419;42.262;12.210;2023-05-07T00:12:23;5.90;;;2.00;;
74867;SDS011;63419;42.262;12.210;2023-05-07T00:14:51;7.63;;;2.05;;
74867;SDS011;63419;42.262;12.210;2023-05-07T00:17:18;5.07;;;1.92;;
74867;SDS011;63419;42.262;12.210;2023-05-07T00:22:13;4.53;;;1.42;;
74867;SDS011;63419;42.262;12.210;2023-05-07T00:24:40;4.60;;;1.58;;
74867;SDS011;63419;42.262;12.210;2023-05-07T00:27:06;5.63;;;1.80;;
74867;SDS011;63419;42.262;12.210;2023-05-07T00:29:33;4.65;;;1.30;;
74867;SDS011;63419;42.262;12.210;2023-05-07T00:32:00;4.75;;;1.35;;
74867;SDS011;63419;42.262;12.210;2023-05-07T00:34:29;3.85;;;0.95;;
74867;SDS011;63419;42.262;12.210;2023-05-07T00:36:56;4.17;;;1.23;;
74867;SDS011;63419;42.262;12.210;2023-05-07T00:39:24;4.88;;;1.05;;
74867;SDS011;63419;42.262;12.210;2023-05-07T00:41:51;3.60;;;0.93;;
74867;SDS011;63419;42.262;12.210;2023-05-07T00:46:45;3.60;;;0.98;;
74867;SDS011;63419;42.262;12.210;2023-05-07T00:49:17;5.82;;;1.02;;
74867;SDS011;63419;42.262;12.210;2023-05-07T00:51:45;3.30;;;0.75;;
74867;SDS011;63419;42.262;12.210;2023-05-07T00:54:13;4.03;;;1.20;;
74867;SDS011;63419;42.262;12.210;2023-05-07T00:56:40;3.75;;;1.17;;
74867;SDS011;63419;42.262;12.210;2023-05-07T00:59:07;3.50;;;1.05;;
74867;SDS011;63419;42.262;12.210;2023-05-07T01:01:35;3.95;;;1.20;;
74867;SDS011;63419;42.262;12.210;2023-05-07T01:04:03;3.78;;;1.15;;
74867;SDS011;63419;42.262;12.210;2023-05-07T01:06:30;4.13;;;1.10;;
74867;SDS011;63419;42.262;12.210;2023-05-07T01:08:59;3.83;;;1.08;;
74867;SDS011;63419;42.262;12.210;2023-05-07T01:11:26;3.60;;;1.20;;
74867;SDS011;63419;42.262;12.210;2023-05-07T01:13:54;4.47;;;1.00;;
74867;SDS011;63419;42.262;12.210;2023-05-07T01:16:21;4.18;;;1.25;;
74867;SDS011;63419;42.262;12.210;2023-05-07T01:18:48;4.55;;;1.20;;
74867;SDS011;63419;42.262;12.210;2023-05-07T01:21:16;7.00;;;1.38;;
74867;SDS011;63419;42.262;12.210;2023-05-07T01:23:44;3.78;;;0.80;;
74867;SDS011;63419;42.262;12.210;2023-05-07T01:26:12;4.00;;;1.20;;
74867;SDS011;63419;42.262;12.210;2023-05-07T01:31:07;4.10;;;1.30;;
74867;SDS011;63419;42.262;12.210;2023-05-07T01:33:35;6.30;;;1.35;;
74867;SDS011;63419;42.262;12.210;2023-05-07T01:36:04;5.50;;;1.60;;
74867;SDS011;63419;42.262;12.210;2023-05-07T01:38:33;5.28;;;1.05;;
74867;SDS011;63419;42.262;12.210;2023-05-07T01:41:02;3.97;;;1.40;;
74867;SDS011;63419;42.262;12.210;2023-05-07T01:45:57;3.70;;;1.20;;
74867;SDS011;63419;42.262;12.210;2023-05-07T01:48:25;4.32;;;1.17;;
74867;SDS011;63419;42.262;12.210;2023-05-07T01:50:52;5.53;;;1.70;;
74867;SDS011;63419;42.262;12.210;2023-05-07T01:55:46;4.18;;;1.35;;
74867;SDS011;63419;42.262;12.210;2023-05-07T01:58:13;6.63;;;1.70;;
74867;SDS011;63419;42.262;12.210;2023-05-07T02:03:08;4.82;;;1.30;;
74867;SDS011;63419;42.262;12.210;2023-05-07T02:05:35;5.43;;;1.10;;
74867;SDS011;63419;42.262;12.210;2023-05-07T02:08:02;4.20;;;0.98;;
74867;SDS011;63419;42.262;12.210;2023-05-07T02:10:29;3.97;;;1.20;;
74867;SDS011;63419;42.262;12.210;2023-05-07T02:12:56;4.50;;;1.20;;
74867;SDS011;63419;42.262;12.210;2023-05-07T02:15:23;3.90;;;0.93;;
74867;SDS011;63419;42.262;12.210;2023-05-07T02:20:25;4.10;;;1.00;;
74867;SDS011;63419;42.262;12.210;2023-05-07T02:22:52;5.75;;;1.20;;
74867;SDS011;63419;42.262;12.210;2023-05-07T02:25:19;6.28;;;1.55;;
74867;SDS011;63419;42.262;12.210;2023-05-07T02:27:46;4.22;;;1.38;;
74867;SDS011;63419;42.262;12.210;2023-05-07T02:30:13;4.13;;;1.15;;
74867;SDS011;63419;42.262;12.210;2023-05-07T02:32:41;5.60;;;1.42;;
74867;SDS011;63419;42.262;12.210;2023-05-07T02:35:08;5.10;;;1.30;;
74867;SDS011;63419;42.262;12.210;2023-05-07T02:37:35;4.80;;;1.42;;
74867;SDS011;63419;42.262;12.210;2023-05-07T02:40:02;4.90;;;1.35;;
74867;SDS011;63419;42.262;12.210;2023-05-07T02:42:30;5.28;;;1.30;;
74867;SDS011;63419;42.262;12.210;2023-05-07T02:44:57;5.00;;;1.25;;
74867;SDS011;63419;42.262;12.210;2023-05-07T02:47:24;4.47;;;1.40;;
74867;SDS011;63419;42.262;12.210;2023-05-07T02:49:54;6.63;;;2.05;;
74867;SDS011;63419;42.262;12.210;2023-05-07T02:52:22;7.15;;;1.80;;
74867;SDS011;63419;42.262;12.210;2023-05-07T02:54:49;8.05;;;3.33;;
74867;SDS011;63419;42.262;12.210;2023-05-07T02:57:16;9.60;;;3.78;;
74867;SDS011;63419;42.262;12.210;2023-05-07T02:59:43;11.85;;;4.03;;
74867;SDS011;63419;42.262;12.210;2023-05-07T03:02:10;9.27;;;3.85;;
74867;SDS011;63419;42.262;12.210;2023-05-07T03:07:05;7.80;;;3.30;;
74867;SDS011;63419;42.262;12.210;2023-05-07T03:09:32;7.22;;;3.10;;
74867;SDS011;63419;42.262;12.210;2023-05-07T03:11:59;6.95;;;2.97;;
74867;SDS011;63419;42.262;12.210;2023-05-07T03:14:26;8.68;;;3.70;;
74867;SDS011;63419;42.262;12.210;2023-05-07T03:16:52;7.28;;;3.33;;
74867;SDS011;63419;42.262;12.210;2023-05-07T03:19:20;10.55;;;3.95;;
74867;SDS011;63419;42.262;12.210;2023-05-07T03:21:47;9.07;;;3.60;;
74867;SDS011;63419;42.262;12.210;2023-05-07T03:24:14;9.82;;;4.05;;
74867;SDS011;63419;42.262;12.210;2023-05-07T03:26:41;10.38;;;3.60;;
74867;SDS011;63419;42.262;12.210;2023-05-07T03:29:08;8.90;;;3.20;;
74867;SDS011;63419;42.262;12.210;2023-05-07T03:31:35;7.28;;;3.13;;
74867;SDS011;63419;42.262;12.210;2023-05-07T03:34:02;10.30;;;3.60;;
74867;SDS011;63419;42.262;12.210;2023-05-07T03:36:30;6.85;;;2.90;;
74867;SDS011;63419;42.262;12.210;2023-05-07T03:38:57;8.55;;;3.38;;
74867;SDS011;63419;42.262;12.210;2023-05-07T03:41:24;8.40;;;3.03;;
74867;SDS011;63419;42.262;12.210;2023-05-07T03:43:52;7.25;;;3.00;;
74867;SDS011;63419;42.262;12.210;2023-05-07T03:46:19;8.07;;;3.28;;
74867;SDS011;63419;42.262;12.210;2023-05-07T03:48:46;9.60;;;4.03;;
74867;SDS011;63419;42.262;12.210;2023-05-07T03:51:13;7.47;;;2.97;;
74867;SDS011;63419;42.262;12.210;2023-05-07T03:53:40;9.68;;;3.72;;
74867;SDS011;63419;42.262;12.210;2023-05-07T03:56:07;12.10;;;3.60;;
74867;SDS011;63419;42.262;12.210;2023-05-07T03:58:34;11.95;;;4.38;;
74867;SDS011;63419;42.262;12.210;2023-05-07T04:01:01;12.88;;;4.70;;
74867;SDS011;63419;42.262;12.210;2023-05-07T04:03:29;11.93;;;4.43;;
74867;SDS011;63419;42.262;12.210;2023-05-07T04:05:56;11.68;;;4.45;;
74867;SDS011;63419;42.262;12.210;2023-05-07T04:08:23;17.45;;;5.30;;
74867;SDS011;63419;42.262;12.210;2023-05-07T04:10:54;15.80;;;5.05;;
74867;SDS011;63419;42.262;12.210;2023-05-07T04:13:21;18.55;;;3.67;;
74867;SDS011;63419;42.262;12.210;2023-05-07T04:15:48;16.00;;;4.20;;
74867;SDS011;63419;42.262;12.210;2023-05-07T04:18:15;14.32;;;3.85;;
74867;SDS011;63419;42.262;12.210;2023-05-07T04:20:43;12.10;;;4.20;;
74867;SDS011;63419;42.262;12.210;2023-05-07T04:23:09;16.08;;;3.92;;
74867;SDS011;63419;42.262;12.210;2023-05-07T04:25:37;14.23;;;4.22;;
74867;SDS011;63419;42.262;12.210;2023-05-07T04:28:04;16.45;;;3.13;;
74867;SDS011;63419;42.262;12.210;2023-05-07T04:30:31;9.13;;;3.00;;
74867;SDS011;63419;42.262;12.210;2023-05-07T04:32:58;10.63;;;3.60;;
74867;SDS011;63419;42.262;12.210;2023-05-07T04:35:25;9.35;;;2.80;;
74867;SDS011;63419;42.262;12.210;2023-05-07T04:37:52;9.18;;;3.10;;
74867;SDS011;63419;42.262;12.210;2023-05-07T04:40:19;7.90;;;2.97;;
74867;SDS011;63419;42.262;12.210;2023-05-07T04:42:46;9.00;;;3.13;;
74867;SDS011;63419;42.262;12.210;2023-05-07T04:45:13;9.75;;;3.88;;
74867;SDS011;63419;42.262;12.210;2023-05-07T04:50:08;5.60;;;2.10;;
74867;SDS011;63419;42.262;12.210;2023-05-07T04:52:36;6.65;;;2.85;;
74867;SDS011;63419;42.262;12.210;2023-05-07T04:55:03;7.25;;;2.78;;
74867;SDS011;63419;42.262;12.210;2023-05-07T04:57:30;5.68;;;2.40;;
74867;SDS011;63419;42.262;12.210;2023-05-07T04:59:57;5.95;;;1.92;;
74867;SDS011;63419;42.262;12.210;2023-05-07T05:02:24;5.38;;;2.45;;
74867;SDS011;63419;42.262;12.210;2023-05-07T05:04:51;5.82;;;2.25;;
74867;SDS011;63419;42.262;12.210;2023-05-07T05:07:18;6.20;;;2.20;;
74867;SDS011;63419;42.262;12.210;2023-05-07T05:09:45;6.38;;;2.50;;
74867;SDS011;63419;42.262;12.210;2023-05-07T05:12:12;7.57;;;2.92;;
74867;SDS011;63419;42.262;12.210;2023-05-07T05:14:39;6.20;;;2.63;;
74867;SDS011;63419;42.262;12.210;2023-05-07T05:17:06;5.93;;;2.30;;
74867;SDS011;63419;42.262;12.210;2023-05-07T05:19:33;6.13;;;2.65;;
74867;SDS011;63419;42.262;12.210;2023-05-07T05:21:59;7.00;;;3.17;;
74867;SDS011;63419;42.262;12.210;2023-05-07T05:24:27;6.40;;;2.35;;
74867;SDS011;63419;42.262;12.210;2023-05-07T05:26:54;5.68;;;2.03;;
74867;SDS011;63419;42.262;12.210;2023-05-07T05:29:21;7.57;;;2.75;;
74867;SDS011;63419;42.262;12.210;2023-05-07T05:31:48;7.15;;;2.25;;
74867;SDS011;63419;42.262;12.210;2023-05-07T05:34:15;5.38;;;2.22;;
74867;SDS011;63419;42.262;12.210;2023-05-07T05:36:43;7.07;;;1.70;;
74867;SDS011;63419;42.262;12.210;2023-05-07T05:39:10;4.65;;;1.60;;
74867;SDS011;63419;42.262;12.210;2023-05-07T05:41:37;6.55;;;1.77;;
74867;SDS011;63419;42.262;12.210;2023-05-07T05:44:04;4.53;;;1.38;;
74867;SDS011;63419;42.262;12.210;2023-05-07T05:46:31;4.40;;;1.48;;
74867;SDS011;63419;42.262;12.210;2023-05-07T05:49:01;4.78;;;1.77;;
74867;SDS011;63419;42.262;12.210;2023-05-07T05:51:28;5.30;;;1.35;;
74867;SDS011;63419;42.262;12.210;2023-05-07T05:53:55;4.88;;;1.23;;
74867;SDS011;63419;42.262;12.210;2023-05-07T05:56:22;5.63;;;1.63;;
74867;SDS011;63419;42.262;12.210;2023-05-07T05:58:49;4.43;;;1.40;;
74867;SDS011;63419;42.262;12.210;2023-05-07T06:01:16;5.15;;;1.45;;
74867;SDS011;63419;42.262;12.210;2023-05-07T06:03:44;4.82;;;1.63;;
74867;SDS011;63419;42.262;12.210;2023-05-07T06:06:11;4.13;;;1.48;;
74867;SDS011;63419;42.262;12.210;2023-05-07T06:08:38;4.32;;;1.45;;
74867;SDS011;63419;42.262;12.210;2023-05-07T06:11:05;4.05;;;1.23;;
74867;SDS011;63419;42.262;12.210;2023-05-07T06:13:32;4.97;;;1.40;;
74867;SDS011;63419;42.262;12.210;2023-05-07T06:18:26;4.90;;;1.30;;
74867;SDS011;63419;42.262;12.210;2023-05-07T06:20:52;5.07;;;1.92;;
74867;SDS011;63419;42.262;12.210;2023-05-07T06:23:19;4.80;;;1.48;;
74867;SDS011;63419;42.262;12.210;2023-05-07T06:25:49;5.45;;;1.83;;
74867;SDS011;63419;42.262;12.210;2023-05-07T06:28:17;5.40;;;1.35;;
74867;SDS011;63419;42.262;12.210;2023-05-07T06:33:11;4.82;;;1.50;;
74867;SDS011;63419;42.262;12.210;2023-05-07T06:35:38;4.32;;;1.20;;
74867;SDS011;63419;42.262;12.210;2023-05-07T06:38:05;3.95;;;1.48;;
74867;SDS011;63419;42.262;12.210;2023-05-07T06:40:32;4.53;;;1.50;;
74867;SDS011;63419;42.262;12.210;2023-05-07T06:42:59;5.28;;;1.30;;
74867;SDS011;63419;42.262;12.210;2023-05-07T06:47:53;4.30;;;1.08;;
74867;SDS011;63419;42.262;12.210;2023-05-07T06:52:47;5.22;;;1.30;;
74867;SDS011;63419;42.262;12.210;2023-05-07T06:55:14;3.92;;;1.20;;
74867;SDS011;63419;42.262;12.210;2023-05-07T06:57:42;3.83;;;1.17;;
74867;SDS011;63419;42.262;12.210;2023-05-07T07:00:09;4.70;;;1.20;;
74867;SDS011;63419;42.262;12.210;2023-05-07T07:02:37;4.03;;;1.15;;
74867;SDS011;63419;42.262;12.210;2023-05-07T07:05:04;2.97;;;0.80;;
74867;SDS011;63419;42.262;12.210;2023-05-07T07:07:32;3.80;;;0.98;;
74867;SDS011;63419;42.262;12.210;2023-05-07T07:09:59;3.72;;;1.20;;
74867;SDS011;63419;42.262;12.210;2023-05-07T07:12:26;3.80;;;0.70;;
74867;SDS011;63419;42.262;12.210;2023-05-07T07:14:53;4.10;;;0.82;;
74867;SDS011;63419;42.262;12.210;2023-05-07T07:17:20;3.58;;;0.95;;
74867;SDS011;63419;42.262;12.210;2023-05-07T07:22:14;3.13;;;0.75;;
74867;SDS011;63419;42.262;12.210;2023-05-07T07:27:08;3.45;;;0.85;;
74867;SDS011;63419;42.262;12.210;2023-05-07T07:32:01;3.35;;;0.98;;
74867;SDS011;63419;42.262;12.210;2023-05-07T07:34:29;4.20;;;1.02;;
74867;SDS011;63419;42.262;12.210;2023-05-07T07:36:56;5.43;;;1.13;;
74867;SDS011;63419;42.262;12.210;2023-05-07T07:41:50;3.75;;;0.82;;
74867;SDS011;63419;42.262;12.210;2023-05-07T07:46:43;3.25;;;0.85;;
74867;SDS011;63419;42.262;12.210;2023-05-07T07:49:10;3.65;;;1.40;;
74867;SDS011;63419;42.262;12.210;2023-05-07T07:54:04;3.28;;;0.65;;
74867;SDS011;63419;42.262;12.210;2023-05-07T07:56:32;4.50;;;1.08;;
74867;SDS011;63419;42.262;12.210;2023-05-07T07:59:01;4.82;;;0.93;;
74867;SDS011;63419;42.262;12.210;2023-05-07T08:01:31;9.38;;;0.90;;
74867;SDS011;63419;42.262;12.210;2023-05-07T08:03:59;3.47;;;0.93;;
74867;SDS011;63419;42.262;12.210;2023-05-07T08:06:26;3.75;;;0.75;;
74867;SDS011;63419;42.262;12.210;2023-05-07T08:11:20;4.32;;;0.70;;
74867;SDS011;63419;42.262;12.210;2023-05-07T08:13:47;3.30;;;1.15;;
74867;SDS011;63419;42.262;12.210;2023-05-07T08:16:14;4.07;;;1.05;;
74867;SDS011;63419;42.262;12.210;2023-05-07T08:18:42;3.55;;;1.23;;
74867;SDS011;63419;42.262;12.210;2023-05-07T08:23:36;4.40;;;0.85;;
74867;SDS011;63419;42.262;12.210;2023-05-07T08:26:03;3.63;;;0.93;;
74867;SDS011;63419;42.262;12.210;2023-05-07T08:28:30;4.22;;;1.10;;
74867;SDS011;63419;42.262;12.210;2023-05-07T08:30:57;4.82;;;1.50;;
74867;SDS011;63419;42.262;12.210;2023-05-07T08:33:26;4.05;;;1.40;;
74867;SDS011;63419;42.262;12.210;2023-05-07T08:35:53;3.65;;;1.05;;
74867;SDS011;63419;42.262;12.210;2023-05-07T08:38:20;3.70;;;1.00;;
74867;SDS011;63419;42.262;12.210;2023-05-07T08:40:47;4.20;;;1.02;;
74867;SDS011;63419;42.262;12.210;2023-05-07T08:43:14;5.10;;;1.02;;
74867;SDS011;63419;42.262;12.210;2023-05-07T08:45:41;5.38;;;1.02;;
74867;SDS011;63419;42.262;12.210;2023-05-07T08:48:15;3.22;;;1.10;;
74867;SDS011;63419;42.262;12.210;2023-05-07T08:50:43;3.65;;;1.05;;
74867;SDS011;63419;42.262;12.210;2023-05-07T08:53:10;4.07;;;1.13;;
74867;SDS011;63419;42.262;12.210;2023-05-07T08:55:37;3.85;;;0.95;;
74867;SDS011;63419;42.262;12.210;2023-05-07T08:58:04;5.15;;;1.10;;
74867;SDS011;63419;42.262;12.210;2023-05-07T09:00:31;3.88;;;0.88;;
74867;SDS011;63419;42.262;12.210;2023-05-07T09:02:59;3.67;;;0.93;;
74867;SDS011;63419;42.262;12.210;2023-05-07T09:05:27;4.20;;;1.05;;
74867;SDS011;63419;42.262;12.210;2023-05-07T09:07:54;4.15;;;1.30;;
74867;SDS011;63419;42.262;12.210;2023-05-07T09:10:23;3.80;;;0.98;;
74867;SDS011;63419;42.262;12.210;2023-05-07T09:12:52;4.70;;;1.15;;
74867;SDS011;63419;42.262;12.210;2023-05-07T09:15:19;4.07;;;0.95;;
74867;SDS011;63419;42.262;12.210;2023-05-07T09:17:46;3.72;;;1.02;;
74867;SDS011;63419;42.262;12.210;2023-05-07T09:20:13;3.70;;;1.02;;
74867;SDS011;63419;42.262;12.210;2023-05-07T09:22:40;3.80;;;1.02;;
74867;SDS011;63419;42.262;12.210;2023-05-07T09:25:07;3.80;;;1.23;;
74867;SDS011;63419;42.262;12.210;2023-05-07T09:27:36;3.80;;;1.10;;
74867;SDS011;63419;42.262;12.210;2023-05-07T09:30:04;3.30;;;1.00;;
74867;SDS011;63419;42.262;12.210;2023-05-07T09:32:36;4.10;;;1.20;;
74867;SDS011;63419;42.262;12.210;2023-05-07T09:35:06;3.20;;;1.08;;
74867;SDS011;63419;42.262;12.210;2023-05-07T09:37:42;3.28;;;0.90;;
74867;SDS011;63419;42.262;12.210;2023-05-07T09:40:19;3.25;;;1.02;;
74867;SDS011;63419;42.262;12.210;2023-05-07T09:42:50;3.70;;;1.00;;
74867;SDS011;63419;42.262;12.210;2023-05-07T09:45:21;3.67;;;1.13;;
74867;SDS011;63419;42.262;12.210;2023-05-07T09:47:48;4.32;;;1.13;;
74867;SDS011;63419;42.262;12.210;2023-05-07T09:50:19;4.68;;;1.13;;
74867;SDS011;63419;42.262;12.210;2023-05-07T09:52:53;3.85;;;1.10;;
74867;SDS011;63419;42.262;12.210;2023-05-07T09:55:22;3.85;;;1.15;;
74867;SDS011;63419;42.262;12.210;2023-05-07T09:57:50;3.45;;;0.90;;
74867;SDS011;63419;42.262;12.210;2023-05-07T10:00:20;3.28;;;1.05;;
74867;SDS011;63419;42.262;12.210;2023-05-07T10:02:48;4.57;;;0.93;;
74867;SDS011;63419;42.262;12.210;2023-05-07T10:05:19;4.55;;;1.30;;
74867;SDS011;63419;42.262;12.210;2023-05-07T10:07:49;3.70;;;1.10;;
74867;SDS011;63419;42.262;12.210;2023-05-07T10:10:17;3.80;;;1.13;;
74867;SDS011;63419;42.262;12.210;2023-05-07T10:12:44;3.40;;;1.08;;
74867;SDS011;63419;42.262;12.210;2023-05-07T10:15:11;4.72;;;1.02;;
74867;SDS011;63419;42.262;12.210;2023-05-07T10:17:39;8.10;;;1.30;;
74867;SDS011;63419;42.262;12.210;2023-05-07T10:20:07;3.47;;;0.95;;
74867;SDS011;63419;42.262;12.210;2023-05-07T10:22:39;4.00;;;1.60;;
74867;SDS011;63419;42.262;12.210;2023-05-07T10:25:21;3.78;;;1.10;;
74867;SDS011;63419;42.262;12.210;2023-05-07T10:27:52;4.75;;;1.38;;
74867;SDS011;63419;42.262;12.210;2023-05-07T10:33:11;4.35;;;1.23;;
74867;SDS011;63419;42.262;12.210;2023-05-07T10:35:41;3.25;;;1.00;;
74867;SDS011;63419;42.262;12.210;2023-05-07T10:38:10;3.90;;;1.30;;
74867;SDS011;63419;42.262;12.210;2023-05-07T10:40:37;4.40;;;1.25;;
74867;SDS011;63419;42.262;12.210;2023-05-07T10:43:04;3.70;;;1.38;;
74867;SDS011;63419;42.262;12.210;2023-05-07T10:45:36;3.90;;;1.13;;
74867;SDS011;63419;42.262;12.210;2023-05-07T10:51:17;3.40;;;1.13;;
74867;SDS011;63419;42.262;12.210;2023-05-07T10:54:14;3.00;;;0.85;;
74867;SDS011;63419;42.262;12.210;2023-05-07T10:56:42;5.30;;;1.42;;
74867;SDS011;63419;42.262;12.210;2023-05-07T11:04:33;3.22;;;1.10;;
74867;SDS011;63419;42.262;12.210;2023-05-07T11:15:14;4.70;;;1.20;;
74867;SDS011;63419;42.262;12.210;2023-05-07T11:26:05;4.90;;;1.23;;
74867;SDS011;63419;42.262;12.210;2023-05-07T11:28:37;3.95;;;1.10;;
74867;SDS011;63419;42.262;12.210;2023-05-07T11:31:08;5.07;;;1.20;;
74867;SDS011;63419;42.262;12.210;2023-05-07T11:33:37;3.90;;;1.45;;
74867;SDS011;63419;42.262;12.210;2023-05-07T11:36:04;3.63;;;0.80;;
74867;SDS011;63419;42.262;12.210;2023-05-07T11:38:37;3.28;;;1.17;;
74867;SDS011;63419;42.262;12.210;2023-05-07T11:41:32;4.25;;;1.20;;
74867;SDS011;63419;42.262;12.210;2023-05-07T11:44:01;3.72;;;1.23;;
74867;SDS011;63419;42.262;12.210;2023-05-07T11:46:28;3.95;;;1.50;;
74867;SDS011;63419;42.262;12.210;2023-05-07T11:48:56;3.97;;;1.40;;
74867;SDS011;63419;42.262;12.210;2023-05-07T11:51:24;4.72;;;1.27;;
74867;SDS011;63419;42.262;12.210;2023-05-07T11:53:52;4.80;;;1.08;;
74867;SDS011;63419;42.262;12.210;2023-05-07T11:56:20;3.67;;;1.35;;
74867;SDS011;63419;42.262;12.210;2023-05-07T11:58:47;4.00;;;1.17;;
74867;SDS011;63419;42.262;12.210;2023-05-07T12:01:16;3.80;;;1.13;;
74867;SDS011;63419;42.262;12.210;2023-05-07T12:03:43;4.15;;;1.08;;
74867;SDS011;63419;42.262;12.210;2023-05-07T12:06:13;3.40;;;0.77;;
74867;SDS011;63419;42.262;12.210;2023-05-07T12:08:42;3.60;;;1.25;;
74867;SDS011;63419;42.262;12.210;2023-05-07T12:11:14;4.57;;;1.20;;
74867;SDS011;63419;42.262;12.210;2023-05-07T12:13:44;3.80;;;1.02;;
74867;SDS011;63419;42.262;12.210;2023-05-07T12:16:11;4.05;;;1.10;;
74867;SDS011;63419;42.262;12.210;2023-05-07T12:18:38;3.70;;;1.00;;
74867;SDS011;63419;42.262;12.210;2023-05-07T12:21:06;4.07;;;1.10;;
74867;SDS011;63419;42.262;12.210;2023-05-07T12:23:34;3.85;;;1.30;;
74867;SDS011;63419;42.262;12.210;2023-05-07T12:26:03;3.50;;;1.02;;
74867;SDS011;63419;42.262;12.210;2023-05-07T12:28:35;4.90;;;1.10;;
74867;SDS011;63419;42.262;12.210;2023-05-07T12:31:05;7.20;;;2.00;;
74867;SDS011;63419;42.262;12.210;2023-05-07T12:33:32;4.07;;;1.17;;
74867;SDS011;63419;42.262;12.210;2023-05-07T12:36:02;5.45;;;1.27;;
74867;SDS011;63419;42.262;12.210;2023-05-07T12:38:35;4.75;;;1.33;;
74867;SDS011;63419;42.262;12.210;2023-05-07T12:41:08;4.78;;;1.20;;
74867;SDS011;63419;42.262;12.210;2023-05-07T12:43:36;3.80;;;1.33;;
74867;SDS011;63419;42.262;12.210;2023-05-07T12:46:05;4.40;;;1.48;;
74867;SDS011;63419;42.262;12.210;2023-05-07T12:48:33;4.15;;;1.35;;
74867;SDS011;63419;42.262;12.210;2023-05-07T12:51:03;4.10;;;1.33;;
74867;SDS011;63419;42.262;12.210;2023-05-07T12:53:32;3.42;;;1.00;;
74867;SDS011;63419;42.262;12.210;2023-05-07T12:55:59;3.85;;;1.30;;
74867;SDS011;63419;42.262;12.210;2023-05-07T12:58:27;4.00;;;1.02;;
74867;SDS011;63419;42.262;12.210;2023-05-07T13:00:56;4.00;;;1.15;;
74867;SDS011;63419;42.262;12.210;2023-05-07T13:03:33;5.63;;;1.20;;
74867;SDS011;63419;42.262;12.210;2023-05-07T13:06:02;5.53;;;1.63;;
74867;SDS011;63419;42.262;12.210;2023-05-07T13:08:37;3.95;;;1.08;;
74867;SDS011;63419;42.262;12.210;2023-05-07T13:11:12;4.22;;;1.23;;
74867;SDS011;63419;42.262;12.210;2023-05-07T13:13:40;3.80;;;0.93;;
74867;SDS011;63419;42.262;12.210;2023-05-07T13:16:08;4.40;;;1.40;;
74867;SDS011;63419;42.262;12.210;2023-05-07T13:18:38;3.60;;;1.10;;
74867;SDS011;63419;42.262;12.210;2023-05-07T13:21:06;4.13;;;1.10;;
74867;SDS011;63419;42.262;12.210;2023-05-07T13:23:34;3.15;;;0.95;;
74867;SDS011;63419;42.262;12.210;2023-05-07T13:26:01;5.43;;;1.13;;
74867;SDS011;63419;42.262;12.210;2023-05-07T13:31:07;3.97;;;1.27;;
74867;SDS011;63419;42.262;12.210;2023-05-07T13:33:34;5.80;;;1.17;;
74867;SDS011;63419;42.262;12.210;2023-05-07T13:36:01;4.47;;;1.20;;
74867;SDS011;63419;42.262;12.210;2023-05-07T13:38:31;3.33;;;1.13;;
74867;SDS011;63419;42.262;12.210;2023-05-07T13:40:58;3.97;;;1.27;;
74867;SDS011;63419;42.262;12.210;2023-05-07T13:43:25;5.10;;;1.67;;
74867;SDS011;63419;42.262;12.210;2023-05-07T13:45:52;5.63;;;1.35;;
74867;SDS011;63419;42.262;12.210;2023-05-07T13:48:19;3.88;;;1.05;;
74867;SDS011;63419;42.262;12.210;2023-05-07T13:50:46;3.70;;;1.00;;
74867;SDS011;63419;42.262;12.210;2023-05-07T13:53:13;4.78;;;1.40;;
74867;SDS011;63419;42.262;12.210;2023-05-07T13:55:41;4.15;;;1.17;;
74867;SDS011;63419;42.262;12.210;2023-05-07T13:58:08;3.97;;;1.40;;
74867;SDS011;63419;42.262;12.210;2023-05-07T14:00:36;4.35;;;0.95;;
74867;SDS011;63419;42.262;12.210;2023-05-07T14:03:04;4.40;;;1.55;;
74867;SDS011;63419;42.262;12.210;2023-05-07T14:05:31;3.92;;;1.05;;
74867;SDS011;63419;42.262;12.210;2023-05-07T14:07:58;3.92;;;1.33;;
74867;SDS011;63419;42.262;12.210;2023-05-07T14:10:25;5.22;;;1.33;;
74867;SDS011;63419;42.262;12.210;2023-05-07T14:12:52;4.10;;;1.45;;
74867;SDS011;63419;42.262;12.210;2023-05-07T14:15:20;3.30;;;0.90;;
74867;SDS011;63419;42.262;12.210;2023-05-07T14:17:47;5.28;;;1.10;;
74867;SDS011;63419;42.262;12.210;2023-05-07T14:20:14;4.22;;;0.98;;
74867;SDS011;63419;42.262;12.210;2023-05-07T14:22:41;3.80;;;0.90;;
74867;SDS011;63419;42.262;12.210;2023-05-07T14:25:08;3.88;;;1.52;;
74867;SDS011;63419;42.262;12.210;2023-05-07T14:27:39;3.65;;;0.98;;
74867;SDS011;63419;42.262;12.210;2023-05-07T14:30:06;4.30;;;1.17;;
74867;SDS011;63419;42.262;12.210;2023-05-07T14:32:34;2.95;;;1.10;;
74867;SDS011;63419;42.262;12.210;2023-05-07T14:35:01;3.20;;;1.10;;
74867;SDS011;63419;42.262;12.210;2023-05-07T14:37:28;3.65;;;1.23;;
74867;SDS011;63419;42.262;12.210;2023-05-07T14:39:55;3.58;;;1.05;;
74867;SDS011;63419;42.262;12.210;2023-05-07T14:42:22;4.60;;;1.13;;
74867;SDS011;63419;42.262;12.210;2023-05-07T14:44:49;3.40;;;1.00;;
74867;SDS011;63419;42.262;12.210;2023-05-07T14:47:15;3.78;;;1.20;;
74867;SDS011;63419;42.262;12.210;2023-05-07T14:49:45;2.83;;;0.75;;
74867;SDS011;63419;42.262;12.210;2023-05-07T14:52:12;1.77;;;0.47;;
74867;SDS011;63419;42.262;12.210;2023-05-07T14:54:39;4.13;;;1.25;;
74867;SDS011;63419;42.262;12.210;2023-05-07T14:57:09;3.90;;;1.10;;
74867;SDS011;63419;42.262;12.210;2023-05-07T14:59:37;3.72;;;1.20;;
74867;SDS011;63419;42.262;12.210;2023-05-07T15:02:08;2.97;;;0.98;;
74867;SDS011;63419;42.262;12.210;2023-05-07T15:04:36;3.83;;;1.20;;
74867;SDS011;63419;42.262;12.210;2023-05-07T15:07:04;3.83;;;1.15;;
74867;SDS011;63419;42.262;12.210;2023-05-07T15:11:58;3.03;;;0.82;;
74867;SDS011;63419;42.262;12.210;2023-05-07T15:14:25;5.45;;;1.10;;
74867;SDS011;63419;42.262;12.210;2023-05-07T15:16:52;3.97;;;1.50;;
74867;SDS011;63419;42.262;12.210;2023-05-07T15:19:19;3.63;;;1.25;;
74867;SDS011;63419;42.262;12.210;2023-05-07T15:21:48;3.28;;;0.80;;
74867;SDS011;63419;42.262;12.210;2023-05-07T15:24:15;4.60;;;1.10;;
74867;SDS011;63419;42.262;12.210;2023-05-07T15:26:42;3.47;;;1.08;;
74867;SDS011;63419;42.262;12.210;2023-05-07T15:29:09;3.55;;;1.20;;
74867;SDS011;63419;42.262;12.210;2023-05-07T15:31:36;2.65;;;0.70;;
74867;SDS011;63419;42.262;12.210;2023-05-07T15:34:05;5.28;;;1.02;;
74867;SDS011;63419;42.262;12.210;2023-05-07T15:36:32;3.53;;;1.20;;
74867;SDS011;63419;42.262;12.210;2023-05-07T15:38:59;4.93;;;0.93;;
74867;SDS011;63419;42.262;12.210;2023-05-07T15:41:28;3.70;;;1.20;;
74867;SDS011;63419;42.262;12.210;2023-05-07T15:43:55;3.85;;;1.35;;
74867;SDS011;63419;42.262;12.210;2023-05-07T15:46:22;5.50;;;1.67;;
74867;SDS011;63419;42.262;12.210;2023-05-07T15:48:52;5.35;;;1.60;;
74867;SDS011;63419;42.262;12.210;2023-05-07T15:51:19;5.10;;;1.30;;
74867;SDS011;63419;42.262;12.210;2023-05-07T15:53:47;3.42;;;1.17;;
74867;SDS011;63419;42.262;12.210;2023-05-07T15:56:15;3.45;;;1.23;;
74867;SDS011;63419;42.262;12.210;2023-05-07T15:58:42;3.90;;;1.42;;
74867;SDS011;63419;42.262;12.210;2023-05-07T16:01:09;4.60;;;1.17;;